Aérodrome :
LOGIN :

S'inscrire | Disclaimer

   EN    FR    IT 

 










Légende :    VFR   VFR Marginal   IFR   IFR Intensif   IFR Très Intensif
Visi : 
Plafond : 
>= 8 km
>= 3000ft
5 à 8 km
1000 à 3000 ft
1500m à 5 km
500 à 1000 ft
800 à 1500m
200 à 500 ft
< 800m
< 200 ft
Symboles :   Orages  Brouillard  Fortes neiges  Fortes précipitations  Vent > 20 kt
SIGMETs :   Divers  Orages  Givrage  Turbulence  Onde Orograph.  Cendres Volcan.






- Altitude de l'aérodrome : 313 ft
- Code IATA : LEH


LFOH - Le Havre Octeville

DERNIER METAR :
  • 091830Z AUTO 16005KT 6000 BKN027 BKN052 02/02 Q1007 TEMPO 2000 SHRASN BKN010 BKN020CB

METARs EXPIRÉS :
  • 091800Z AUTO 12003KT 7000 FEW028 SCT054 01/01 Q1007 TEMPO 2000 SHRASN BKN010 BKN020CB
  • 091730Z AUTO VRB02KT 6000 FEW043 SCT050 01/M00 Q1007 TEMPO 2000 SHRASN BKN010 BKN020CB
  • 091700Z AUTO 00000KT 7000 FEW026 01/01 Q1007 TEMPO 2000 SHRASN BKN010 BKN020CB
  • 091630Z AUTO VRB01KT 9999 FEW039 SCT049 01/00 Q1007 TEMPO 2000 SHRASN BKN010 BKN020CB
  • 091600Z AUTO 22003KT 9999 FEW029 02/01 Q1007 TEMPO 2000 SHRASN BKN010 BKN020CB

TAF TAF LFOH
Valide du 09 à 12h jusqu'au 10 à 12h UTC


091100Z 0912/1012 21007KT 9999 SCT030
TEMPO 0912/0916 BKN007
TEMPO 0916/1012 2000 SHRASN BKN010 BKN020CB
PROB30
TEMPO 1005/1012 TSRA
ATIS : +33 2 35 54 64 93



MET'MAP, la Météo Aéronautique d'un coup d'oeil ! - Copyright ORBIFLY Décembre 2007 - Disclaimer

ORBIFLY MET'MAP TEAM :

Programmation & Développement : Alexandra Zaïnal
Sur une idée originale de : Baudouin d'Aumeries
Soutien technique & logistique : Manuel Goepfert
Assistance : Marc-Olivier Méhu




SOURCES & CREDITS :

   NOAA